Latest Weather Observations for Cerberus

IDV60801

Issued at 10:32 pm EDT Friday 20 January 2017 (issued every 30 minutes, with the page automatically refreshed every 10 minutes)

About weather observations | Map of weather stations | Latest weather observations for VIC | Other Formats
Station Details ID: 086361 Name: CERBERUS Lat: -38.36 Lon: 145.18 Height: 12.69 m
Data from the previous 72 hours. | See also: Recent months at Cerberus
Date/Time
EDT
Temp
°C
App
Temp
°C
Dew
Point
°C
Rel
Hum
%
Delta-T
°C
Wind Press
QNH
hPa
Press
MSL
hPa
Rain since
9am
mm
Dir  Spd
km/h
Gust
km/h
Spd
kts
Gust
kts
20/10:30pm 15.9 12.2 10.0 68 3.1 SSW 20 32 11 17 1008.9 1008.9 0.0
20/10:00pm 15.8 12.2 9.9 68 3.1 SW 19 28 10 15 1008.7 1008.7 0.0
20/09:30pm 15.9 11.4 10.0 68 3.1 SW 24 35 13 19 1008.5 1008.5 0.0
20/09:00pm 15.9 12.0 10.7 71 2.8 SW 22 39 12 21 1008.0 1008.0 0.0
20/08:30pm 16.0 11.7 10.7 71 2.8 SW 24 44 13 24 1007.7 1007.7 0.0
20/08:00pm 16.2 11.9 10.7 70 2.9 SW 24 37 13 20 1007.2 1007.2 0.0
20/07:41pm 16.2 11.1 10.7 70 2.9 SW 28 48 15 26 1006.7 1006.7 0.0
20/07:30pm 17.3 13.2 11.6 69 3.1 SW 24 39 13 21 1006.5 1006.5 0.0
20/07:00pm 16.8 12.8 11.9 73 2.7 SW 24 39 13 21 1005.9 1005.9 0.0
20/06:30pm 17.0 12.2 11.5 70 3.0 SW 28 43 15 23 1005.1 1005.1 0.0
20/06:13pm 17.2 12.5 11.9 71 2.9 SW 28 46 15 25 1005.0 1005.0 0.0
20/06:00pm 17.8 12.3 11.8 68 3.3 SW 32 43 17 23 1004.6 1004.6 0.0
20/05:30pm 17.8 12.4 12.3 70 3.0 SW 32 52 17 28 1003.9 1003.9 0.0
20/05:00pm 18.1 12.4 11.7 66 3.5 SW 33 52 18 28 1003.5 1003.5 0.0
20/04:30pm 18.3 11.8 11.8 66 3.6 SW 37 57 20 31 1002.8 1002.8 0.0
20/04:00pm 18.8 13.2 13.2 70 3.2 SW 35 56 19 30 1002.2 1002.2 0.0
20/03:34pm 19.3 14.3 13.3 68 3.4 SW 32 52 17 28 1001.6 1001.6 0.0
20/03:30pm 19.3 14.1 13.3 68 3.4 SW 33 52 18 28 1001.5 1001.5 0.0
20/03:01pm 20.1 15.1 14.0 68 3.5 SW 33 56 18 30 1000.8 1000.8 0.0
20/03:00pm 19.5 14.4 13.7 69 3.3 SW 33 50 18 27 1000.8 1000.8 0.0
20/02:32pm 19.4 13.5 12.4 64 3.9 WSW 35 57 19 31 1000.5 1000.5 0.0
20/02:30pm 19.5 14.0 12.5 64 3.9 WSW 33 48 18 26 1000.6 1000.6 0.0
20/02:00pm 18.9 12.3 11.5 62 4.1 SW 37 57 20 31 1000.2 1000.2 0.0
20/01:30pm 19.4 12.3 12.2 63 4.0 WSW 41 61 22 33 1000.0 1000.0 0.0
20/01:06pm 18.0 13.5 12.7 71 3.0 WSW 28 50 15 27 999.9 999.9 0.0
20/01:00pm 18.9 15.4 14.6 76 2.5 WSW 26 43 14 23 999.8 999.8 0.0
20/12:30pm 16.9 13.3 13.2 79 2.1 WSW 24 43 13 23 999.2 999.2 0.0
20/12:00pm 16.5 12.4 12.8 79 2.1 WSW 26 41 14 22 998.7 998.7 0.0
20/11:30am 16.2 13.3 14.0 87 1.2 WSW 22 32 12 17 997.8 997.8 0.0
20/11:00am 16.8 13.2 14.1 84 1.5 WSW 26 39 14 21 996.7 996.7 0.0
20/10:30am 17.6 14.9 14.5 82 1.8 WSW 22 35 12 19 995.7 995.7 0.0
20/10:00am 17.4 15.2 15.0 86 1.4 W 20 35 11 19 995.2 995.2 0.0
20/09:30am 17.2 14.9 14.7 85 1.4 WNW 20 35 11 19 994.8 994.8 0.0
20/09:15am 17.4 13.7 15.0 86 1.4 WNW 28 46 15 25 994.6 994.6 0.0
20/09:00am 17.8 13.2 15.2 85 1.5 NW 33 48 18 26 994.1 994.1 22.8
20/08:44am 17.9 14.6 16.1 89 1.1 NW 28 46 15 25 993.7 993.7 22.8
20/08:30am 17.6 15.0 15.9 90 1.0 NW 24 39 13 21 993.9 993.9 22.8
20/08:14am 17.4 15.6 16.1 92 0.8 WNW 20 44 11 24 993.2 993.2 22.8
20/08:00am 16.7 15.6 15.4 92 0.8 NW 15 26 8 14 993.2 993.2 22.4
20/07:30am 16.4 16.7 15.1 92 0.8 N 7 11 4 6 992.4 992.4 21.2
20/07:00am 16.6 15.9 15.3 92 0.8 NNE 13 24 7 13 991.5 991.5 20.0
20/06:30am 16.6 15.1 15.3 92 0.8 NNE 17 33 9 18 991.9 991.9 17.8
20/06:00am 16.3 15.1 15.0 92 0.8 NE 15 28 8 15 992.6 992.6 17.4
20/05:30am 16.0 15.0 14.7 92 0.7 NE 13 24 7 13 993.9 993.9 17.2
20/05:18am 16.4 16.4 15.1 92 0.8 NE 9 19 5 10 994.8 994.8 16.8
20/05:00am 16.5 17.4 15.2 92 0.8 NE 4 11 2 6 996.8 996.8 15.2
20/04:30am 16.6 17.9 15.1 91 0.9 WSW 2 4 1 2 998.0 998.0 11.4
20/04:00am 16.6 17.5 15.1 91 0.9 W 4 6 2 3 999.4 999.4 8.4
20/03:30am 16.8 18.5 15.2 90 0.9 CALM 0 6 0 3 999.9 999.9 6.4
20/03:00am 16.8 16.7 15.0 89 1.0 WSW 9 13 5 7 1001.1 1001.1 4.0
20/02:30am 17.2 16.8 15.2 88 1.2 WSW 11 20 6 11 1001.8 1001.8 1.4
20/02:00am 18.3 16.9 14.6 79 2.2 SW 15 24 8 13 1001.3 1001.3 0.0
20/01:49am 18.9 19.9 14.4 75 2.6 NNE 2 9 1 5 999.5 999.5 0.0
20/01:30am 18.9 18.2 14.2 74 2.7 ENE 11 19 6 10 997.5 997.5 0.0
20/01:00am 19.1 18.6 13.7 71 3.1 ENE 9 15 5 8 997.9 997.9 0.0
20/12:30am 18.8 18.4 12.5 67 3.5 NE 6 9 3 5 999.1 999.1 0.0
20/12:00am 18.9 18.5 12.4 66 3.6 ENE 6 13 3 7 999.4 999.4 0.0
 
Date/Time
EDT
Temp
°C
App
Temp
°C
Dew
Point
°C
Rel
Hum
%
Delta-T
°C
Wind Press
QNH
hPa
Press
MSL
hPa
Rain since
9am
mm
Dir  Spd
km/h
Gust
km/h
Spd
kts
Gust
kts
19/11:30pm 19.1 17.8 12.4 65 3.7 ENE 11 20 6 11 1000.1 1000.1 0.0
19/11:00pm 19.7 17.3 12.5 63 4.1 ENE 17 28 9 15 1000.7 1000.7 0.0
19/10:30pm 20.4 18.3 12.4 60 4.5 ENE 15 28 8 15 1001.5 1001.5 0.0
19/10:00pm 20.8 18.6 12.2 58 4.8 ENE 15 24 8 13 1002.4 1002.4 0.0
19/09:30pm 21.6 19.8 12.2 55 5.3 ENE 13 22 7 12 1003.0 1003.0 0.0
19/09:00pm 21.7 22.0 15.1 66 3.9 E 7 11 4 6 1002.9 1002.9 0.0
19/08:30pm 21.4 21.8 13.8 62 4.4 SE 4 7 2 4 1003.8 1003.8 0.0
19/08:00pm 21.4 21.6 12.0 55 5.3 WSW 2 4 1 2 1004.1 1004.1 0.0
19/07:30pm 21.9 21.2 11.9 53 5.6 SW 7 11 4 6 1004.8 1004.8 0.0
19/07:00pm 23.5 22.4 11.9 48 6.6 SW 9 17 5 9 1005.2 1005.2 0.0
19/06:30pm 23.5 21.9 11.5 47 6.7 SW 11 17 6 9 1005.6 1005.6 0.0
19/06:00pm 23.0 21.5 13.2 54 5.7 SSW 13 19 7 10 1005.7 1005.7 0.0
19/05:30pm 22.0 20.3 13.6 59 4.9 SW 15 22 8 12 1006.1 1006.1 0.0
19/05:00pm 22.7 20.5 13.2 55 5.5 SW 17 24 9 13 1007.0 1007.0 0.0
19/04:30pm 22.3 19.5 12.5 53 5.6 SW 19 30 10 16 1007.7 1007.7 0.0
19/04:00pm 21.9 19.1 11.3 51 5.9 S 17 26 9 14 1008.3 1008.3 0.0
19/03:30pm 21.8 18.8 10.6 49 6.1 S 17 26 9 14 1008.8 1008.8 0.0
19/03:00pm 21.8 19.3 10.9 50 6.0 S 15 28 8 15 1009.4 1009.4 0.0
19/02:30pm 21.1 18.6 9.7 48 6.1 S 13 20 7 11 1010.0 1010.0 0.0
19/02:00pm 21.2 18.2 9.4 47 6.3 S 15 24 8 13 1010.4 1010.4 0.0
19/01:30pm 21.7 18.7 10.8 50 6.0 SW 17 28 9 15 1011.1 1011.1 0.0
19/01:00pm 21.2 19.0 7.8 42 7.0 ESE 9 19 5 10 1011.5 1011.5 0.0
19/12:30pm 20.7 18.5 7.7 43 6.7 E 9 15 5 8 1012.0 1012.0 0.0
19/12:00pm 20.2 17.7 8.2 46 6.2 ESE 11 19 6 10 1012.6 1012.6 0.0
19/11:30am 19.6 17.1 8.0 47 6.0 SE 11 17 6 9 1012.7 1012.7 0.0
19/11:00am 18.8 16.5 7.6 48 5.7 ESE 9 19 5 10 1013.0 1013.0 0.0
19/10:30am 18.4 15.9 8.1 51 5.3 SE 11 20 6 11 1013.7 1013.6 0.0
19/10:00am 18.0 15.6 8.8 55 4.8 ESE 11 20 6 11 1014.0 1013.9 0.0
19/09:30am 17.6 15.8 9.5 59 4.2 ESE 9 17 5 9 1014.4 1014.3 0.0
19/09:00am 17.1 15.1 10.0 63 3.7 ESE 11 19 6 10 1014.6 1014.5 0.2
19/08:30am 16.6 15.3 9.8 64 3.6 ESE 7 13 4 7 1014.8 1014.7 0.2
19/08:00am 15.2 14.1 9.8 70 2.8 E 6 9 3 5 1014.8 1014.7 0.2
19/07:30am 13.7 13.6 10.7 82 1.6 ENE 2 6 1 3 1015.0 1014.9 0.2
19/07:00am 10.2 9.4 8.0 86 1.1 ENE 2 4 1 2 1014.8 1014.7 0.2
19/06:30am 11.2 10.2 8.8 85 1.2 ENE 4 4 2 2 1014.6 1014.5 0.2
19/06:00am 10.7 10.2 7.9 83 1.4 CALM 0 0 0 0 1014.6 1014.5 0.2
19/05:30am 10.8 9.9 7.7 81 1.5 ENE 2 4 1 2 1014.5 1014.4 0.2
19/05:00am 11.6 11.2 8.1 79 1.7 CALM 0 0 0 0 1014.6 1014.5 0.2
19/04:30am 12.6 11.8 8.1 74 2.2 SE 2 4 1 2 1014.6 1014.5 0.2
19/04:00am 12.9 11.3 7.8 71 2.5 SE 6 9 3 5 1014.7 1014.6 0.2
19/03:30am 13.0 11.8 8.1 72 2.4 SSE 4 6 2 3 1015.2 1015.1 0.2
19/03:00am 12.8 11.6 7.9 72 2.4 SSE 4 9 2 5 1015.5 1015.4 0.2
19/02:30am 13.0 11.2 7.9 71 2.5 SSE 7 11 4 6 1015.6 1015.5 0.2
19/02:00am 13.4 11.6 8.0 70 2.7 SSE 7 13 4 7 1016.1 1016.0 0.2
19/01:30am 13.6 11.5 8.2 70 2.7 SSE 9 15 5 8 1016.2 1016.1 0.2
19/01:00am 13.7 11.2 8.1 69 2.8 S 11 17 6 9 1016.5 1016.4 0.2
19/12:30am 13.3 11.4 7.7 69 2.8 SSE 7 11 4 6 1016.9 1016.8 0.2
19/12:00am 13.5 10.8 7.5 67 2.9 S 11 19 6 10 1017.4 1017.3 0.2
 
Date/Time
EDT
Temp
°C
App
Temp
°C
Dew
Point
°C
Rel
Hum
%
Delta-T
°C
Wind Press
QNH
hPa
Press
MSL
hPa
Rain since
9am
mm
Dir  Spd
km/h
Gust
km/h
Spd
kts
Gust
kts
18/11:30pm 13.8 11.1 7.3 65 3.2 S 11 17 6 9 1017.5 1017.4 0.2
18/11:00pm 14.0 11.0 7.5 65 3.2 S 13 19 7 10 1017.5 1017.4 0.2
18/10:30pm 14.1 10.7 6.0 58 3.9 S 13 20 7 11 1017.5 1017.4 0.2
18/10:00pm 14.4 11.1 6.5 59 3.8 S 13 24 7 13 1017.4 1017.3 0.2
18/09:30pm 14.6 11.4 6.7 59 3.8 S 13 22 7 12 1017.2 1017.1 0.2
18/09:00pm 14.9 11.1 7.7 62 3.6 S 17 26 9 14 1017.3 1017.2 0.2
18/08:30pm 15.0 11.9 7.3 60 3.8 S 13 19 7 10 1017.3 1017.2 0.2
18/08:00pm 15.9 12.2 7.9 59 4.0 S 17 28 9 15 1017.0 1016.9 0.2
18/07:30pm 16.4 12.4 8.1 58 4.2 S 19 26 10 14 1016.8 1016.7 0.2
18/07:00pm 17.3 13.1 7.4 52 5.0 SSW 19 32 10 17 1016.7 1016.6 0.2
18/06:30pm 17.6 13.3 6.8 49 5.4 SSW 19 28 10 15 1016.5 1016.4 0.2
18/06:00pm 17.5 12.9 6.4 48 5.5 SSW 20 30 11 16 1016.4 1016.3 0.2
18/05:30pm 17.8 13.4 7.2 50 5.3 SSW 20 30 11 16 1016.4 1016.3 0.2
18/05:00pm 18.3 14.0 7.7 50 5.4 SSW 20 30 11 16 1016.4 1016.3 0.2
18/04:30pm 18.2 14.0 7.6 50 5.4 SSW 19 30 10 16 1016.4 1016.3 0.2
18/04:00pm 18.6 14.3 7.7 49 5.5 SSW 20 30 11 16 1016.3 1016.2 0.2
18/03:30pm 18.7 14.5 7.5 48 5.7 SSW 19 32 10 17 1016.3 1016.2 0.2
18/03:00pm 18.5 13.3 5.4 42 6.4 SW 22 35 12 19 1016.3 1016.2 0.2
18/02:30pm 18.8 13.9 6.9 46 6.0 SW 22 32 12 17 1016.3 1016.2 0.2
18/02:00pm 19.1 14.7 7.5 47 5.9 SSW 20 33 11 18 1016.4 1016.3 0.2
18/01:30pm 19.1 14.7 9.0 52 5.3 SSW 22 35 12 19 1016.2 1016.1 0.2
18/01:00pm 18.7 13.7 8.1 50 5.4 SSW 24 35 13 19 1015.9 1015.8 0.2
18/12:30pm 18.9 14.1 8.8 52 5.3 SW 24 37 13 20 1015.6 1015.5 0.2
18/12:00pm 18.9 14.0 8.6 51 5.3 SSW 24 33 13 18 1015.5 1015.4 0.0
18/11:30am 18.4 14.4 8.1 51 5.3 SSW 19 30 10 16 1015.2 1015.1 0.0
18/11:00am 17.0 13.0 9.2 60 4.0 SSW 20 28 11 15 1014.8 1014.7 0.0
18/10:30am 16.4 13.2 11.1 71 2.8 SSW 19 35 10 19 1014.4 1014.3 0.0
18/10:00am 17.9 14.2 9.3 57 4.5 SSW 19 26 10 14 1013.8 1013.7 0.0
18/09:30am 18.3 14.3 9.1 55 4.8 SSW 20 32 11 17 1013.6 1013.5 0.0
18/09:00am 17.5 13.8 9.4 59 4.2 SW 19 33 10 18 1013.4 1013.4 0.0
18/08:30am 17.3 13.0 9.5 60 4.1 SSW 22 39 12 21 1013.2 1013.2 0.0
18/08:00am 16.8 11.6 8.8 59 4.1 SSW 26 41 14 22 1012.6 1012.6 0.0
18/07:30am 16.3 11.0 8.3 59 4.1 SSW 26 43 14 23 1011.9 1011.9 0.0
18/07:00am 16.3 13.0 10.8 70 2.9 SSW 19 33 10 18 1011.3 1011.3 0.0
18/06:30am 16.5 12.4 10.1 66 3.4 SSW 22 37 12 20 1010.6 1010.6 0.0
18/06:00am 16.5 12.8 10.1 66 3.4 SSW 20 35 11 19 1009.9 1009.9 0.0
18/05:30am 16.1 13.1 12.7 80 1.9 SW 20 35 11 19 1009.7 1009.7 0.0
18/05:00am 16.4 13.8 13.7 84 1.5 SW 20 32 11 17 1009.0 1009.0 0.0
18/04:30am 16.6 14.3 13.1 80 2.0 SW 17 28 9 15 1009.0 1009.0 0.0
18/04:00am 16.5 14.4 13.6 83 1.6 SW 17 28 9 15 1009.1 1009.1 0.0
18/03:30am 16.9 15.3 14.0 83 1.6 SW 15 22 8 12 1008.9 1008.9 0.0
18/03:00am 17.9 16.6 13.8 77 2.3 SW 13 26 7 14 1009.3 1009.3 0.0
18/02:30am 18.4 16.1 14.1 76 2.5 SW 19 32 10 17 1009.9 1009.9 0.0
18/02:00am 18.9 17.6 13.7 72 3.0 SW 13 28 7 15 1009.5 1009.5 0.0
18/01:30am 19.6 17.8 13.3 67 3.6 SW 15 28 8 15 1009.5 1009.5 0.0
18/01:00am 18.5 19.0 14.0 75 2.6 W 4 7 2 4 1009.9 1009.9 0.0
18/12:30am 18.9 19.5 14.2 74 2.7 W 4 4 2 2 1009.8 1009.8 0.0
18/12:00am 19.1 19.4 14.4 74 2.7 W 6 7 3 4 1009.9 1009.9 0.0
 
Date/Time
EDT
Temp
°C
App
Temp
°C
Dew
Point
°C
Rel
Hum
%
Delta-T
°C
Wind Press
QNH
hPa
Press
MSL
hPa
Rain since
9am
mm
Dir  Spd
km/h
Gust
km/h
Spd
kts
Gust
kts
17/11:30pm 19.4 19.6 14.6 74 2.8 WSW 7 9 4 5 1009.9 1009.9 0.0
17/11:00pm 19.7 18.7 14.7 73 2.9 SW 13 20 7 11 1009.8 1009.8 0.0

Other Formats:

Comma delimited format used in spreadsheet applications
http://www.bom.gov.au/fwo/IDV60801/IDV60801.94898.axf

JavaScript Object Notation format (JSON) in row-major order
http://www.bom.gov.au/fwo/IDV60801/IDV60801.94898.json